sensor_id;sensor_type;location;lat;lon;timestamp;P1;durP1;ratioP1;P2;durP2;ratioP2
29576;SDS011;16509;53.862;10.672;2022-10-16T00:01:59;8.38;;;4.15;;
29576;SDS011;16509;53.862;10.672;2022-10-16T00:04:27;5.97;;;3.45;;
29576;SDS011;16509;53.862;10.672;2022-10-16T00:06:52;12.90;;;3.70;;
29576;SDS011;16509;53.862;10.672;2022-10-16T00:09:18;6.47;;;3.55;;
29576;SDS011;16509;53.862;10.672;2022-10-16T00:11:45;4.10;;;3.22;;
29576;SDS011;16509;53.862;10.672;2022-10-16T00:14:12;6.55;;;3.45;;
29576;SDS011;16509;53.862;10.672;2022-10-16T00:16:39;7.63;;;3.50;;
29576;SDS011;16509;53.862;10.672;2022-10-16T00:19:05;8.82;;;3.53;;
29576;SDS011;16509;53.862;10.672;2022-10-16T00:21:32;5.43;;;2.85;;
29576;SDS011;16509;53.862;10.672;2022-10-16T00:24:02;6.07;;;3.13;;
29576;SDS011;16509;53.862;10.672;2022-10-16T00:26:31;6.85;;;3.35;;
29576;SDS011;16509;53.862;10.672;2022-10-16T00:28:59;5.30;;;3.08;;
29576;SDS011;16509;53.862;10.672;2022-10-16T00:31:25;5.57;;;2.45;;
29576;SDS011;16509;53.862;10.672;2022-10-16T00:33:51;8.38;;;3.20;;
29576;SDS011;16509;53.862;10.672;2022-10-16T00:36:19;6.22;;;3.15;;
29576;SDS011;16509;53.862;10.672;2022-10-16T00:38:46;6.03;;;3.40;;
29576;SDS011;16509;53.862;10.672;2022-10-16T00:41:15;6.72;;;3.65;;
29576;SDS011;16509;53.862;10.672;2022-10-16T00:43:47;5.80;;;3.50;;
29576;SDS011;16509;53.862;10.672;2022-10-16T00:46:22;7.85;;;3.95;;
29576;SDS011;16509;53.862;10.672;2022-10-16T00:48:50;5.53;;;3.20;;
29576;SDS011;16509;53.862;10.672;2022-10-16T00:51:21;8.38;;;3.95;;
29576;SDS011;16509;53.862;10.672;2022-10-16T00:53:54;5.03;;;3.85;;
29576;SDS011;16509;53.862;10.672;2022-10-16T00:56:20;8.50;;;4.25;;
29576;SDS011;16509;53.862;10.672;2022-10-16T00:58:45;6.88;;;3.65;;
29576;SDS011;16509;53.862;10.672;2022-10-16T01:01:11;6.32;;;3.78;;
29576;SDS011;16509;53.862;10.672;2022-10-16T01:03:37;9.50;;;3.95;;
29576;SDS011;16509;53.862;10.672;2022-10-16T01:08:44;6.72;;;4.18;;
29576;SDS011;16509;53.862;10.672;2022-10-16T01:11:56;9.90;;;4.32;;
29576;SDS011;16509;53.862;10.672;2022-10-16T01:17:04;7.22;;;4.30;;
29576;SDS011;16509;53.862;10.672;2022-10-16T01:22:40;7.60;;;4.22;;
29576;SDS011;16509;53.862;10.672;2022-10-16T01:25:17;8.00;;;4.78;;
29576;SDS011;16509;53.862;10.672;2022-10-16T01:30:29;11.57;;;4.40;;
29576;SDS011;16509;53.862;10.672;2022-10-16T01:33:00;6.90;;;4.50;;
29576;SDS011;16509;53.862;10.672;2022-10-16T01:35:34;10.02;;;4.60;;
29576;SDS011;16509;53.862;10.672;2022-10-16T01:38:12;11.05;;;4.70;;
29576;SDS011;16509;53.862;10.672;2022-10-16T01:40:40;8.25;;;4.22;;
29576;SDS011;16509;53.862;10.672;2022-10-16T01:43:20;7.18;;;4.45;;
29576;SDS011;16509;53.862;10.672;2022-10-16T01:45:49;7.40;;;3.83;;
29576;SDS011;16509;53.862;10.672;2022-10-16T01:48:19;6.50;;;4.10;;
29576;SDS011;16509;53.862;10.672;2022-10-16T01:50:50;10.27;;;4.68;;
29576;SDS011;16509;53.862;10.672;2022-10-16T01:53:27;7.72;;;4.45;;
29576;SDS011;16509;53.862;10.672;2022-10-16T01:55:54;8.18;;;5.18;;
29576;SDS011;16509;53.862;10.672;2022-10-16T01:58:22;12.43;;;4.25;;
29576;SDS011;16509;53.862;10.672;2022-10-16T02:00:50;8.10;;;3.60;;
29576;SDS011;16509;53.862;10.672;2022-10-16T02:05:48;9.07;;;4.30;;
29576;SDS011;16509;53.862;10.672;2022-10-16T02:08:20;7.88;;;3.55;;
29576;SDS011;16509;53.862;10.672;2022-10-16T02:10:47;13.18;;;4.03;;
29576;SDS011;16509;53.862;10.672;2022-10-16T02:13:15;9.95;;;3.83;;
29576;SDS011;16509;53.862;10.672;2022-10-16T02:16:02;9.85;;;3.20;;
29576;SDS011;16509;53.862;10.672;2022-10-16T02:18:28;5.15;;;3.42;;
29576;SDS011;16509;53.862;10.672;2022-10-16T02:26:32;8.52;;;3.10;;
29576;SDS011;16509;53.862;10.672;2022-10-16T02:29:08;6.72;;;3.60;;
29576;SDS011;16509;53.862;10.672;2022-10-16T02:31:39;6.60;;;3.40;;
29576;SDS011;16509;53.862;10.672;2022-10-16T02:34:15;6.22;;;3.22;;
29576;SDS011;16509;53.862;10.672;2022-10-16T02:36:49;6.03;;;3.33;;
29576;SDS011;16509;53.862;10.672;2022-10-16T02:39:17;4.68;;;3.63;;
29576;SDS011;16509;53.862;10.672;2022-10-16T02:41:45;3.47;;;2.65;;
29576;SDS011;16509;53.862;10.672;2022-10-16T02:44:12;6.72;;;2.80;;
29576;SDS011;16509;53.862;10.672;2022-10-16T02:46:42;5.13;;;3.20;;
29576;SDS011;16509;53.862;10.672;2022-10-16T02:49:08;10.18;;;2.92;;
29576;SDS011;16509;53.862;10.672;2022-10-16T02:51:35;3.90;;;2.78;;
29576;SDS011;16509;53.862;10.672;2022-10-16T02:54:01;4.68;;;2.63;;
29576;SDS011;16509;53.862;10.672;2022-10-16T02:56:27;6.18;;;3.33;;
29576;SDS011;16509;53.862;10.672;2022-10-16T02:58:52;5.72;;;2.90;;
29576;SDS011;16509;53.862;10.672;2022-10-16T03:01:18;7.35;;;3.03;;
29576;SDS011;16509;53.862;10.672;2022-10-16T03:03:44;10.38;;;2.35;;
29576;SDS011;16509;53.862;10.672;2022-10-16T03:06:10;4.05;;;2.55;;
29576;SDS011;16509;53.862;10.672;2022-10-16T03:08:37;2.95;;;2.30;;
29576;SDS011;16509;53.862;10.672;2022-10-16T03:11:03;10.77;;;3.15;;
29576;SDS011;16509;53.862;10.672;2022-10-16T03:13:28;7.50;;;2.28;;
29576;SDS011;16509;53.862;10.672;2022-10-16T03:15:54;4.93;;;2.20;;
29576;SDS011;16509;53.862;10.672;2022-10-16T03:18:22;8.43;;;2.35;;
29576;SDS011;16509;53.862;10.672;2022-10-16T03:20:48;6.10;;;2.28;;
29576;SDS011;16509;53.862;10.672;2022-10-16T03:23:14;4.50;;;2.10;;
29576;SDS011;16509;53.862;10.672;2022-10-16T03:25:39;4.47;;;2.60;;
29576;SDS011;16509;53.862;10.672;2022-10-16T03:28:05;4.30;;;1.98;;
29576;SDS011;16509;53.862;10.672;2022-10-16T03:30:30;4.78;;;2.42;;
29576;SDS011;16509;53.862;10.672;2022-10-16T03:32:56;6.53;;;1.98;;
29576;SDS011;16509;53.862;10.672;2022-10-16T03:35:23;4.18;;;2.20;;
29576;SDS011;16509;53.862;10.672;2022-10-16T03:37:51;8.38;;;2.33;;
29576;SDS011;16509;53.862;10.672;2022-10-16T03:40:17;7.93;;;2.10;;
29576;SDS011;16509;53.862;10.672;2022-10-16T03:42:43;5.70;;;2.30;;
29576;SDS011;16509;53.862;10.672;2022-10-16T03:45:09;5.85;;;2.17;;
29576;SDS011;16509;53.862;10.672;2022-10-16T03:47:36;4.53;;;2.15;;
29576;SDS011;16509;53.862;10.672;2022-10-16T03:50:02;2.75;;;1.98;;
29576;SDS011;16509;53.862;10.672;2022-10-16T03:52:28;5.65;;;2.25;;
29576;SDS011;16509;53.862;10.672;2022-10-16T03:54:55;4.78;;;2.33;;
29576;SDS011;16509;53.862;10.672;2022-10-16T03:57:20;2.13;;;1.77;;
29576;SDS011;16509;53.862;10.672;2022-10-16T03:59:47;4.60;;;1.95;;
29576;SDS011;16509;53.862;10.672;2022-10-16T04:02:13;5.05;;;1.80;;
29576;SDS011;16509;53.862;10.672;2022-10-16T04:04:38;4.28;;;1.83;;
29576;SDS011;16509;53.862;10.672;2022-10-16T04:07:04;4.00;;;1.85;;
29576;SDS011;16509;53.862;10.672;2022-10-16T04:09:29;3.35;;;1.73;;
29576;SDS011;16509;53.862;10.672;2022-10-16T04:11:56;4.75;;;1.83;;
29576;SDS011;16509;53.862;10.672;2022-10-16T04:14:22;5.95;;;1.85;;
29576;SDS011;16509;53.862;10.672;2022-10-16T04:16:47;4.32;;;1.80;;
29576;SDS011;16509;53.862;10.672;2022-10-16T04:19:13;5.80;;;2.17;;
29576;SDS011;16509;53.862;10.672;2022-10-16T04:21:38;4.00;;;1.70;;
29576;SDS011;16509;53.862;10.672;2022-10-16T04:24:04;2.88;;;2.10;;
29576;SDS011;16509;53.862;10.672;2022-10-16T04:26:31;6.10;;;1.90;;
29576;SDS011;16509;53.862;10.672;2022-10-16T04:28:57;3.42;;;1.60;;
29576;SDS011;16509;53.862;10.672;2022-10-16T04:31:24;7.72;;;1.73;;
29576;SDS011;16509;53.862;10.672;2022-10-16T04:33:49;2.97;;;1.85;;
29576;SDS011;16509;53.862;10.672;2022-10-16T04:36:15;2.45;;;1.70;;
29576;SDS011;16509;53.862;10.672;2022-10-16T04:38:40;6.75;;;1.85;;
29576;SDS011;16509;53.862;10.672;2022-10-16T04:41:07;4.00;;;2.13;;
29576;SDS011;16509;53.862;10.672;2022-10-16T04:43:33;10.32;;;1.60;;
29576;SDS011;16509;53.862;10.672;2022-10-16T04:45:59;4.03;;;1.40;;
29576;SDS011;16509;53.862;10.672;2022-10-16T04:48:25;6.63;;;1.70;;
29576;SDS011;16509;53.862;10.672;2022-10-16T04:50:53;8.98;;;1.65;;
29576;SDS011;16509;53.862;10.672;2022-10-16T04:53:20;6.80;;;1.70;;
29576;SDS011;16509;53.862;10.672;2022-10-16T04:55:47;4.05;;;2.03;;
29576;SDS011;16509;53.862;10.672;2022-10-16T04:58:13;4.07;;;1.45;;
29576;SDS011;16509;53.862;10.672;2022-10-16T05:00:39;3.10;;;1.60;;
29576;SDS011;16509;53.862;10.672;2022-10-16T05:03:05;2.35;;;1.80;;
29576;SDS011;16509;53.862;10.672;2022-10-16T05:05:33;12.45;;;1.95;;
29576;SDS011;16509;53.862;10.672;2022-10-16T05:08:01;8.40;;;2.17;;
29576;SDS011;16509;53.862;10.672;2022-10-16T05:10:28;2.40;;;1.55;;
29576;SDS011;16509;53.862;10.672;2022-10-16T05:12:54;5.57;;;1.45;;
29576;SDS011;16509;53.862;10.672;2022-10-16T05:15:20;1.40;;;1.30;;
29576;SDS011;16509;53.862;10.672;2022-10-16T05:17:45;3.55;;;1.40;;
29576;SDS011;16509;53.862;10.672;2022-10-16T05:20:12;3.78;;;1.90;;
29576;SDS011;16509;53.862;10.672;2022-10-16T05:22:38;2.95;;;1.55;;
29576;SDS011;16509;53.862;10.672;2022-10-16T05:25:04;6.20;;;1.60;;
29576;SDS011;16509;53.862;10.672;2022-10-16T05:27:29;2.42;;;1.58;;
29576;SDS011;16509;53.862;10.672;2022-10-16T05:29:55;3.33;;;1.60;;
29576;SDS011;16509;53.862;10.672;2022-10-16T05:32:21;7.18;;;1.30;;
29576;SDS011;16509;53.862;10.672;2022-10-16T05:34:46;3.63;;;1.90;;
29576;SDS011;16509;53.862;10.672;2022-10-16T05:37:12;5.70;;;1.48;;
29576;SDS011;16509;53.862;10.672;2022-10-16T05:39:38;3.33;;;1.40;;
29576;SDS011;16509;53.862;10.672;2022-10-16T05:42:04;6.00;;;1.70;;
29576;SDS011;16509;53.862;10.672;2022-10-16T05:44:30;3.53;;;1.80;;
29576;SDS011;16509;53.862;10.672;2022-10-16T05:46:56;2.92;;;1.48;;
29576;SDS011;16509;53.862;10.672;2022-10-16T05:49:21;3.95;;;1.85;;
29576;SDS011;16509;53.862;10.672;2022-10-16T05:51:47;4.82;;;1.42;;
29576;SDS011;16509;53.862;10.672;2022-10-16T05:54:12;1.50;;;1.40;;
29576;SDS011;16509;53.862;10.672;2022-10-16T05:56:38;2.55;;;1.42;;
29576;SDS011;16509;53.862;10.672;2022-10-16T05:59:04;2.67;;;1.73;;
29576;SDS011;16509;53.862;10.672;2022-10-16T06:01:30;6.25;;;1.55;;
29576;SDS011;16509;53.862;10.672;2022-10-16T06:03:56;2.22;;;1.67;;
29576;SDS011;16509;53.862;10.672;2022-10-16T06:06:23;1.83;;;1.30;;
29576;SDS011;16509;53.862;10.672;2022-10-16T06:08:51;1.95;;;1.65;;
29576;SDS011;16509;53.862;10.672;2022-10-16T06:11:21;3.58;;;1.42;;
29576;SDS011;16509;53.862;10.672;2022-10-16T06:13:55;3.20;;;1.35;;
29576;SDS011;16509;53.862;10.672;2022-10-16T06:16:22;3.63;;;1.63;;
29576;SDS011;16509;53.862;10.672;2022-10-16T06:28:45;1.55;;;1.45;;
29576;SDS011;16509;53.862;10.672;2022-10-16T06:31:12;3.42;;;1.52;;
29576;SDS011;16509;53.862;10.672;2022-10-16T06:33:38;5.72;;;1.98;;
29576;SDS011;16509;53.862;10.672;2022-10-16T06:36:06;5.10;;;1.98;;
29576;SDS011;16509;53.862;10.672;2022-10-16T06:38:34;3.13;;;1.40;;
29576;SDS011;16509;53.862;10.672;2022-10-16T06:41:02;1.92;;;1.17;;
29576;SDS011;16509;53.862;10.672;2022-10-16T06:43:28;3.53;;;1.90;;
29576;SDS011;16509;53.862;10.672;2022-10-16T06:45:57;2.15;;;1.42;;
29576;SDS011;16509;53.862;10.672;2022-10-16T06:48:24;6.22;;;1.40;;
29576;SDS011;16509;53.862;10.672;2022-10-16T06:55:48;8.73;;;1.65;;
29576;SDS011;16509;53.862;10.672;2022-10-16T06:58:14;1.60;;;1.20;;
29576;SDS011;16509;53.862;10.672;2022-10-16T07:00:39;3.97;;;1.60;;
29576;SDS011;16509;53.862;10.672;2022-10-16T07:03:05;2.95;;;1.58;;
29576;SDS011;16509;53.862;10.672;2022-10-16T07:05:30;6.38;;;1.48;;
29576;SDS011;16509;53.862;10.672;2022-10-16T07:07:56;3.55;;;1.58;;
29576;SDS011;16509;53.862;10.672;2022-10-16T07:10:22;1.95;;;1.35;;
29576;SDS011;16509;53.862;10.672;2022-10-16T07:12:49;1.63;;;1.40;;
29576;SDS011;16509;53.862;10.672;2022-10-16T07:15:14;3.38;;;1.50;;
29576;SDS011;16509;53.862;10.672;2022-10-16T07:17:40;3.45;;;1.67;;
29576;SDS011;16509;53.862;10.672;2022-10-16T07:20:06;1.90;;;1.40;;
29576;SDS011;16509;53.862;10.672;2022-10-16T07:22:32;3.45;;;1.60;;
29576;SDS011;16509;53.862;10.672;2022-10-16T07:24:57;3.85;;;2.05;;
29576;SDS011;16509;53.862;10.672;2022-10-16T07:27:23;2.88;;;1.75;;
29576;SDS011;16509;53.862;10.672;2022-10-16T07:29:49;6.93;;;1.88;;
29576;SDS011;16509;53.862;10.672;2022-10-16T07:32:15;2.47;;;1.60;;
29576;SDS011;16509;53.862;10.672;2022-10-16T07:34:40;3.60;;;1.50;;
29576;SDS011;16509;53.862;10.672;2022-10-16T07:37:07;7.55;;;1.73;;
29576;SDS011;16509;53.862;10.672;2022-10-16T07:39:32;2.78;;;1.30;;
29576;SDS011;16509;53.862;10.672;2022-10-16T07:41:58;4.95;;;1.70;;
29576;SDS011;16509;53.862;10.672;2022-10-16T07:44:24;4.35;;;1.92;;
29576;SDS011;16509;53.862;10.672;2022-10-16T07:46:49;5.22;;;1.88;;
29576;SDS011;16509;53.862;10.672;2022-10-16T07:49:15;4.95;;;1.65;;
29576;SDS011;16509;53.862;10.672;2022-10-16T07:51:42;3.13;;;1.75;;
29576;SDS011;16509;53.862;10.672;2022-10-16T07:54:11;5.13;;;2.00;;
29576;SDS011;16509;53.862;10.672;2022-10-16T07:59:07;4.38;;;1.80;;
29576;SDS011;16509;53.862;10.672;2022-10-16T08:01:33;7.75;;;1.90;;
29576;SDS011;16509;53.862;10.672;2022-10-16T08:04:00;3.65;;;1.42;;
29576;SDS011;16509;53.862;10.672;2022-10-16T08:06:27;4.35;;;1.45;;
29576;SDS011;16509;53.862;10.672;2022-10-16T08:08:53;2.67;;;1.50;;
29576;SDS011;16509;53.862;10.672;2022-10-16T08:11:20;4.85;;;2.22;;
29576;SDS011;16509;53.862;10.672;2022-10-16T08:13:45;2.17;;;1.33;;
29576;SDS011;16509;53.862;10.672;2022-10-16T08:16:11;2.15;;;1.30;;
29576;SDS011;16509;53.862;10.672;2022-10-16T08:18:38;3.67;;;1.50;;
29576;SDS011;16509;53.862;10.672;2022-10-16T08:21:05;2.88;;;1.67;;
29576;SDS011;16509;53.862;10.672;2022-10-16T08:23:35;3.05;;;1.73;;
29576;SDS011;16509;53.862;10.672;2022-10-16T08:26:04;3.80;;;1.83;;
29576;SDS011;16509;53.862;10.672;2022-10-16T08:28:32;10.15;;;1.80;;
29576;SDS011;16509;53.862;10.672;2022-10-16T08:31:14;3.83;;;1.73;;
29576;SDS011;16509;53.862;10.672;2022-10-16T08:33:41;1.93;;;1.47;;
29576;SDS011;16509;53.862;10.672;2022-10-16T08:36:09;2.13;;;1.83;;
29576;SDS011;16509;53.862;10.672;2022-10-16T08:38:36;4.68;;;1.70;;
29576;SDS011;16509;53.862;10.672;2022-10-16T08:44:00;3.33;;;1.65;;
29576;SDS011;16509;53.862;10.672;2022-10-16T08:46:42;2.72;;;1.35;;
29576;SDS011;16509;53.862;10.672;2022-10-16T08:49:11;5.05;;;1.67;;
29576;SDS011;16509;53.862;10.672;2022-10-16T08:51:41;3.80;;;1.58;;
29576;SDS011;16509;53.862;10.672;2022-10-16T08:57:01;1.88;;;1.40;;
29576;SDS011;16509;53.862;10.672;2022-10-16T08:59:43;3.58;;;1.75;;
29576;SDS011;16509;53.862;10.672;2022-10-16T09:02:25;2.40;;;1.50;;
29576;SDS011;16509;53.862;10.672;2022-10-16T09:10:21;3.33;;;1.77;;
29576;SDS011;16509;53.862;10.672;2022-10-16T09:13:13;1.73;;;1.23;;
29576;SDS011;16509;53.862;10.672;2022-10-16T09:23:51;1.55;;;1.30;;
29576;SDS011;16509;53.862;10.672;2022-10-16T09:26:24;2.30;;;1.50;;
29576;SDS011;16509;53.862;10.672;2022-10-16T09:28:51;3.72;;;1.42;;
29576;SDS011;16509;53.862;10.672;2022-10-16T09:31:19;10.68;;;1.60;;
29576;SDS011;16509;53.862;10.672;2022-10-16T09:33:55;1.95;;;1.30;;
29576;SDS011;16509;53.862;10.672;2022-10-16T09:36:25;2.40;;;1.33;;
29576;SDS011;16509;53.862;10.672;2022-10-16T09:39:07;5.22;;;1.58;;
29576;SDS011;16509;53.862;10.672;2022-10-16T09:41:41;2.72;;;1.30;;
29576;SDS011;16509;53.862;10.672;2022-10-16T09:44:19;3.40;;;1.40;;
29576;SDS011;16509;53.862;10.672;2022-10-16T09:47:04;2.53;;;1.20;;
29576;SDS011;16509;53.862;10.672;2022-10-16T09:49:31;3.35;;;1.20;;
29576;SDS011;16509;53.862;10.672;2022-10-16T09:52:03;3.70;;;1.05;;
29576;SDS011;16509;53.862;10.672;2022-10-16T09:54:31;4.95;;;1.23;;
29576;SDS011;16509;53.862;10.672;2022-10-16T09:57:10;2.45;;;1.35;;
29576;SDS011;16509;53.862;10.672;2022-10-16T09:59:45;1.73;;;1.30;;
29576;SDS011;16509;53.862;10.672;2022-10-16T10:02:13;5.00;;;1.13;;
29576;SDS011;16509;53.862;10.672;2022-10-16T10:04:52;4.47;;;1.25;;
29576;SDS011;16509;53.862;10.672;2022-10-16T10:07:26;3.25;;;1.13;;
29576;SDS011;16509;53.862;10.672;2022-10-16T10:10:01;2.25;;;1.05;;
29576;SDS011;16509;53.862;10.672;2022-10-16T10:12:32;3.03;;;1.20;;
29576;SDS011;16509;53.862;10.672;2022-10-16T10:15:06;2.53;;;1.23;;
29576;SDS011;16509;53.862;10.672;2022-10-16T10:17:46;1.63;;;1.10;;
29576;SDS011;16509;53.862;10.672;2022-10-16T10:22:52;1.05;;;0.93;;
29576;SDS011;16509;53.862;10.672;2022-10-16T10:31:06;2.45;;;0.82;;
29576;SDS011;16509;53.862;10.672;2022-10-16T10:34:04;4.63;;;1.10;;
29576;SDS011;16509;53.862;10.672;2022-10-16T10:37:01;3.28;;;1.15;;
29576;SDS011;16509;53.862;10.672;2022-10-16T10:42:56;1.90;;;0.80;;
29576;SDS011;16509;53.862;10.672;2022-10-16T10:45:37;2.42;;;0.98;;
29576;SDS011;16509;53.862;10.672;2022-10-16T10:54:01;0.93;;;0.75;;
29576;SDS011;16509;53.862;10.672;2022-10-16T10:56:49;5.78;;;1.15;;
29576;SDS011;16509;53.862;10.672;2022-10-16T11:02:41;3.75;;;1.10;;
29576;SDS011;16509;53.862;10.672;2022-10-16T11:05:14;8.75;;;1.08;;
29576;SDS011;16509;53.862;10.672;2022-10-16T11:07:49;5.10;;;1.00;;
29576;SDS011;16509;53.862;10.672;2022-10-16T11:10:24;2.65;;;0.82;;
29576;SDS011;16509;53.862;10.672;2022-10-16T11:13:08;5.82;;;0.85;;
29576;SDS011;16509;53.862;10.672;2022-10-16T11:15:44;2.67;;;1.10;;
29576;SDS011;16509;53.862;10.672;2022-10-16T11:18:16;1.95;;;0.77;;
29576;SDS011;16509;53.862;10.672;2022-10-16T11:20:50;4.07;;;1.17;;
29576;SDS011;16509;53.862;10.672;2022-10-16T11:23:26;3.90;;;1.05;;
29576;SDS011;16509;53.862;10.672;2022-10-16T11:26:02;2.72;;;0.73;;
29576;SDS011;16509;53.862;10.672;2022-10-16T11:28:34;1.85;;;0.77;;
29576;SDS011;16509;53.862;10.672;2022-10-16T11:33:55;2.20;;;0.90;;
29576;SDS011;16509;53.862;10.672;2022-10-16T11:36:41;4.50;;;0.90;;
29576;SDS011;16509;53.862;10.672;2022-10-16T11:39:30;5.05;;;1.02;;
29576;SDS011;16509;53.862;10.672;2022-10-16T11:41:59;5.28;;;1.20;;
29576;SDS011;16509;53.862;10.672;2022-10-16T11:53:34;3.33;;;1.00;;
29576;SDS011;16509;53.862;10.672;2022-10-16T11:55:39;7.97;;;1.35;;
29576;SDS011;16509;53.862;10.672;2022-10-16T12:03:18;2.83;;;0.88;;
29576;SDS011;16509;53.862;10.672;2022-10-16T12:08:44;3.67;;;0.95;;
29576;SDS011;16509;53.862;10.672;2022-10-16T12:13:51;5.68;;;1.00;;
29576;SDS011;16509;53.862;10.672;2022-10-16T12:18:43;7.15;;;0.95;;
29576;SDS011;16509;53.862;10.672;2022-10-16T12:21:11;2.90;;;0.80;;
29576;SDS011;16509;53.862;10.672;2022-10-16T12:23:47;4.45;;;0.85;;
29576;SDS011;16509;53.862;10.672;2022-10-16T12:26:36;3.80;;;0.93;;
29576;SDS011;16509;53.862;10.672;2022-10-16T12:31:48;2.08;;;0.85;;
29576;SDS011;16509;53.862;10.672;2022-10-16T12:34:26;5.78;;;0.85;;
29576;SDS011;16509;53.862;10.672;2022-10-16T12:40:04;3.33;;;0.75;;
29576;SDS011;16509;53.862;10.672;2022-10-16T12:42:38;3.67;;;0.73;;
29576;SDS011;16509;53.862;10.672;2022-10-16T12:47:49;3.70;;;1.00;;
29576;SDS011;16509;53.862;10.672;2022-10-16T12:50:24;8.73;;;1.00;;
29576;SDS011;16509;53.862;10.672;2022-10-16T12:52:49;4.10;;;0.90;;
29576;SDS011;16509;53.862;10.672;2022-10-16T12:55:16;3.28;;;1.20;;
29576;SDS011;16509;53.862;10.672;2022-10-16T13:00:56;1.80;;;0.80;;
29576;SDS011;16509;53.862;10.672;2022-10-16T13:09:02;2.05;;;0.82;;
29576;SDS011;16509;53.862;10.672;2022-10-16T13:11:57;5.85;;;1.20;;
29576;SDS011;16509;53.862;10.672;2022-10-16T13:15:20;4.57;;;1.00;;
29576;SDS011;16509;53.862;10.672;2022-10-16T13:18:39;4.97;;;0.90;;
29576;SDS011;16509;53.862;10.672;2022-10-16T13:23:36;5.35;;;0.90;;
29576;SDS011;16509;53.862;10.672;2022-10-16T13:26:14;2.58;;;0.88;;
29576;SDS011;16509;53.862;10.672;2022-10-16T13:28:48;8.82;;;1.20;;
29576;SDS011;16509;53.862;10.672;2022-10-16T13:31:15;3.40;;;1.02;;
29576;SDS011;16509;53.862;10.672;2022-10-16T13:33:49;3.35;;;0.80;;
29576;SDS011;16509;53.862;10.672;2022-10-16T13:36:25;3.92;;;1.00;;
29576;SDS011;16509;53.862;10.672;2022-10-16T13:44:29;4.00;;;1.15;;
29576;SDS011;16509;53.862;10.672;2022-10-16T13:46:59;3.28;;;1.00;;
29576;SDS011;16509;53.862;10.672;2022-10-16T13:49:26;4.38;;;1.13;;
29576;SDS011;16509;53.862;10.672;2022-10-16T13:51:58;5.60;;;0.90;;
29576;SDS011;16509;53.862;10.672;2022-10-16T13:54:25;4.43;;;0.98;;
29576;SDS011;16509;53.862;10.672;2022-10-16T13:56:53;3.75;;;1.10;;
29576;SDS011;16509;53.862;10.672;2022-10-16T13:59:22;4.18;;;1.00;;
29576;SDS011;16509;53.862;10.672;2022-10-16T14:01:50;5.60;;;1.20;;
29576;SDS011;16509;53.862;10.672;2022-10-16T14:04:21;2.58;;;0.65;;
29576;SDS011;16509;53.862;10.672;2022-10-16T14:06:48;6.43;;;1.13;;
29576;SDS011;16509;53.862;10.672;2022-10-16T14:09:23;10.48;;;1.17;;
29576;SDS011;16509;53.862;10.672;2022-10-16T14:11:53;4.72;;;0.98;;
29576;SDS011;16509;53.862;10.672;2022-10-16T14:14:24;6.75;;;1.20;;
29576;SDS011;16509;53.862;10.672;2022-10-16T14:16:57;7.35;;;1.10;;
29576;SDS011;16509;53.862;10.672;2022-10-16T14:19:24;3.88;;;0.82;;
29576;SDS011;16509;53.862;10.672;2022-10-16T14:21:52;7.80;;;0.90;;
29576;SDS011;16509;53.862;10.672;2022-10-16T14:24:31;5.68;;;1.02;;
29576;SDS011;16509;53.862;10.672;2022-10-16T14:26:59;2.58;;;0.98;;
29576;SDS011;16509;53.862;10.672;2022-10-16T14:29:26;3.85;;;1.10;;
29576;SDS011;16509;53.862;10.672;2022-10-16T14:31:59;4.25;;;0.90;;
29576;SDS011;16509;53.862;10.672;2022-10-16T14:34:30;2.65;;;1.10;;
29576;SDS011;16509;53.862;10.672;2022-10-16T14:37:06;6.63;;;1.00;;
29576;SDS011;16509;53.862;10.672;2022-10-16T14:39:50;3.25;;;0.70;;
29576;SDS011;16509;53.862;10.672;2022-10-16T14:42:16;6.00;;;1.10;;
29576;SDS011;16509;53.862;10.672;2022-10-16T14:44:44;3.05;;;0.90;;
29576;SDS011;16509;53.862;10.672;2022-10-16T14:47:13;5.93;;;0.90;;
29576;SDS011;16509;53.862;10.672;2022-10-16T14:49:41;5.03;;;1.27;;
29576;SDS011;16509;53.862;10.672;2022-10-16T14:52:08;3.83;;;1.13;;
29576;SDS011;16509;53.862;10.672;2022-10-16T14:54:35;5.28;;;1.13;;
29576;SDS011;16509;53.862;10.672;2022-10-16T14:57:01;4.07;;;0.88;;
29576;SDS011;16509;53.862;10.672;2022-10-16T14:59:32;4.93;;;0.90;;
29576;SDS011;16509;53.862;10.672;2022-10-16T15:02:02;3.60;;;1.00;;
29576;SDS011;16509;53.862;10.672;2022-10-16T15:05:07;2.83;;;0.98;;
29576;SDS011;16509;53.862;10.672;2022-10-16T15:07:37;1.92;;;0.85;;
29576;SDS011;16509;53.862;10.672;2022-10-16T15:10:03;5.00;;;1.05;;
29576;SDS011;16509;53.862;10.672;2022-10-16T15:12:29;3.72;;;0.80;;
29576;SDS011;16509;53.862;10.672;2022-10-16T15:14:54;1.95;;;0.85;;
29576;SDS011;16509;53.862;10.672;2022-10-16T15:17:20;6.47;;;0.90;;
29576;SDS011;16509;53.862;10.672;2022-10-16T15:19:45;5.53;;;1.30;;
29576;SDS011;16509;53.862;10.672;2022-10-16T15:22:11;5.40;;;1.52;;
29576;SDS011;16509;53.862;10.672;2022-10-16T15:24:37;5.72;;;1.38;;
29576;SDS011;16509;53.862;10.672;2022-10-16T15:27:02;3.95;;;1.00;;
29576;SDS011;16509;53.862;10.672;2022-10-16T15:29:28;8.90;;;1.45;;
29576;SDS011;16509;53.862;10.672;2022-10-16T15:31:54;3.58;;;1.10;;
29576;SDS011;16509;53.862;10.672;2022-10-16T15:34:19;5.50;;;1.05;;
29576;SDS011;16509;53.862;10.672;2022-10-16T15:36:45;3.67;;;1.40;;
29576;SDS011;16509;53.862;10.672;2022-10-16T15:41:44;4.80;;;1.10;;
29576;SDS011;16509;53.862;10.672;2022-10-16T15:44:16;4.30;;;1.17;;
29576;SDS011;16509;53.862;10.672;2022-10-16T15:46:42;8.52;;;1.65;;
29576;SDS011;16509;53.862;10.672;2022-10-16T15:49:07;4.60;;;1.30;;
29576;SDS011;16509;53.862;10.672;2022-10-16T15:51:34;4.82;;;1.27;;
29576;SDS011;16509;53.862;10.672;2022-10-16T15:54:04;9.68;;;1.27;;
29576;SDS011;16509;53.862;10.672;2022-10-16T15:56:29;10.38;;;2.20;;
29576;SDS011;16509;53.862;10.672;2022-10-16T15:58:58;4.97;;;1.60;;
29576;SDS011;16509;53.862;10.672;2022-10-16T16:01:24;7.72;;;1.85;;
29576;SDS011;16509;53.862;10.672;2022-10-16T16:03:52;8.88;;;2.67;;
29576;SDS011;16509;53.862;10.672;2022-10-16T16:06:18;8.80;;;2.03;;
29576;SDS011;16509;53.862;10.672;2022-10-16T16:08:44;7.63;;;2.03;;
29576;SDS011;16509;53.862;10.672;2022-10-16T16:11:11;11.38;;;2.55;;
29576;SDS011;16509;53.862;10.672;2022-10-16T16:13:38;7.50;;;3.65;;
29576;SDS011;16509;53.862;10.672;2022-10-16T16:16:05;9.30;;;2.35;;
29576;SDS011;16509;53.862;10.672;2022-10-16T16:18:32;6.72;;;1.60;;
29576;SDS011;16509;53.862;10.672;2022-10-16T16:20:58;5.30;;;1.92;;
29576;SDS011;16509;53.862;10.672;2022-10-16T16:23:23;6.07;;;1.40;;
29576;SDS011;16509;53.862;10.672;2022-10-16T16:26:06;2.50;;;1.40;;
29576;SDS011;16509;53.862;10.672;2022-10-16T16:28:32;2.67;;;1.23;;
29576;SDS011;16509;53.862;10.672;2022-10-16T16:30:58;10.18;;;1.63;;
29576;SDS011;16509;53.862;10.672;2022-10-16T16:33:24;4.68;;;1.80;;
29576;SDS011;16509;53.862;10.672;2022-10-16T16:35:49;11.57;;;1.70;;
29576;SDS011;16509;53.862;10.672;2022-10-16T16:38:15;5.40;;;1.13;;
29576;SDS011;16509;53.862;10.672;2022-10-16T16:40:40;4.13;;;1.10;;
29576;SDS011;16509;53.862;10.672;2022-10-16T16:43:06;3.28;;;1.35;;
29576;SDS011;16509;53.862;10.672;2022-10-16T16:45:35;5.45;;;1.48;;
29576;SDS011;16509;53.862;10.672;2022-10-16T16:48:00;6.75;;;1.60;;
29576;SDS011;16509;53.862;10.672;2022-10-16T16:50:26;5.93;;;1.70;;
29576;SDS011;16509;53.862;10.672;2022-10-16T16:52:51;8.00;;;1.88;;
29576;SDS011;16509;53.862;10.672;2022-10-16T16:55:17;4.30;;;1.60;;
29576;SDS011;16509;53.862;10.672;2022-10-16T16:57:42;4.72;;;1.63;;